KRIV/RIV METAR and TAF weather

Enter ICAO airport designator
Station Type Date Time Source
KRIV METAR 2022/07/01 00:58 UTC NOAA

KRIV 010058Z AUTO 32012KT 10SM CLR 33/10 A2995 RMK AO2 SLP127 T03290096


Station Type Date Time Source
KRIV Decoded METAR 2022/07/01 00:58 UTC NOAA

Riverside / March Air Force Base, CA, United States (KRIV) 33-54N 117-15W 468M
Jun 30, 2022 - 08:58 PM EDT / 2022.07.01 0058 UTC
Wind: from the NW (320 degrees) at 14 MPH (12 KT):0
Visibility: 10 mile(s):0
Sky conditions: clear
Temperature: 91.2 F (32.9 C)
Dew Point: 49.3 F (9.6 C)
Relative Humidity: 23%
Pressure (altimeter): 29.95 in. Hg (1014 hPa)
ob: KRIV 010058Z AUTO 32012KT 10SM CLR 33/10 A2995 RMK AO2 SLP127 T03290096
cycle: 1

Station Type Date Time Source
KRIV TAF 2022/06/30 20:12 UTC NOAA

TAF TAF KRIV 302010Z 3020/0202 32009KT 9999 FEW120 FEW150 510006 QNH2995INS
TEMPO 3021/0102 32012G20KT
BECMG 0104/0105 VRB06KT 9999 FEW180 QNH2999INS
BECMG 0119/0120 32009KT 9999 FEW180 QNH2992INS
TEMPO 0121/0202 32012G20KT TX35/3022Z TN18/0113Z

Example: see airport list